📊 Raw Sensor Data

Showing records 39151 to 39175 of 84,941 total

ID Distance (ft) Battery V Battery A Int Temp (°F) Int Humid (%) Ext Temp (°F) Solar V RSSI SNR Time Stamp
45803 15.6 4.04 8 79 43 81 5.10 -67 7 07/09/2025 11:30 AM
45802 15.6 3.94 8 78 43 79 5.10 -66 7 07/09/2025 11:15 AM
45801 15.6 3.98 0 77 43 76 5.10 -66 7 07/09/2025 11:00 AM
45800 15.6 3.95 8 76 42 74 5.10 -67 8 07/09/2025 10:45 AM
45799 15.6 3.94 0 75 42 74 5.10 -65 8 07/09/2025 10:30 AM
45798 15.6 3.94 8 73 43 75 5.10 -67 8 07/09/2025 10:15 AM
45797 15.7 3.94 0 73 43 72 5.10 -66 8 07/09/2025 10:00 AM
45796 15.6 3.94 8 71 43 71 5.10 -66 7 07/09/2025 09:45 AM
45795 15.6 3.94 8 70 43 72 5.10 -66 8 07/09/2025 09:30 AM
45794 15.6 3.98 8 70 43 74 5.10 -67 8 07/09/2025 09:15 AM
45793 15.6 3.94 0 68 44 73 5.10 -68 8 07/09/2025 09:00 AM
45792 15.6 3.94 8 67 44 69 5.10 -68 8 07/09/2025 08:45 AM
45791 15.6 3.95 8 65 43 68 5.10 -68 8 07/09/2025 08:30 AM
45790 15.6 3.94 0 65 43 67 5.10 -69 8 07/09/2025 08:15 AM
45789 15.5 4.07 81 63 43 69 4.50 -68 8 07/09/2025 08:00 AM
45788 15.5 4.01 45 62 42 67 4.50 -69 8 07/09/2025 07:45 AM
45787 15.5 3.95 13 61 42 66 4.50 -67 8 07/09/2025 07:30 AM
45786 15.5 3.91 17 59 42 65 4.50 -68 9 07/09/2025 07:15 AM
45785 15.4 3.95 10 57 42 63 4.50 -69 8 07/09/2025 07:00 AM
45784 15.4 3.93 6 56 42 62 4.60 -69 7 07/09/2025 06:45 AM
45783 15.3 3.93 0 55 42 59 4.50 -68 8 07/09/2025 06:30 AM
45782 15.3 3.86 0 53 42 55 4.50 -68 7 07/09/2025 06:15 AM
45781 15.3 3.91 -9 52 43 54 4.50 -67 8 07/09/2025 06:00 AM
45780 15.3 3.85 -9 52 43 53 3.20 -66 8 07/09/2025 05:45 AM
45779 15.2 3.86 -5 52 43 53 1.00 -67 8 07/09/2025 05:30 AM